Погода Женерал-Салгадуна неделю

Сан-Паулу, Бразилия

16 - 22 июля
  • 16июля
    Сегодня
    +17°
    +30°
    Небольшая облачность
    ВремяПогодаТемператураВлажностьДавлениеВетер, м/сВероятность осадков
    00:00Ясно и безоблачно+19°C73 %716 мм2.5 м/с5 %
    03:00Ясно и безоблачно+18°C81 %715 мм3.8 м/с5 %
    06:00Ясно и безоблачно+16°C85 %715 мм3.4 м/с5 %
    09:00Небольшая облачность+18°C69 %717 мм3.6 м/с5 %
    12:00Небольшая облачность+26°C39 %717 мм2.8 м/с5 %
    15:00Небольшая облачность+29°C28 %716 мм1.7 м/с5 %
    18:00Небольшая облачность+25°C44 %715 мм2.1 м/с5 %
    21:00Облачно с прояснениями+23°C57 %717 мм3.1 м/с5 %
  • 17июля
    Среда
    +17°
    +30°
    Ясно и безоблачно
    ВремяПогодаТемператураВлажностьДавлениеВетер, м/сВероятность осадков
    00:00Ясно и безоблачно+21°C60 %716 мм3.8 м/с5 %
    03:00Ясно и безоблачно+19°C70 %715 мм4.2 м/с5 %
    06:00Ясно и безоблачно+17°C80 %716 мм3.4 м/с5 %
    09:00Ясно и безоблачно+20°C67 %718 мм3.4 м/с5 %
    12:00Ясно и безоблачно+27°C42 %718 мм2.2 м/с5 %
    15:00Ясно и безоблачно+30°C31 %716 мм1.6 м/с5 %
    18:00Ясно и безоблачно+26°C43 %715 мм2.4 м/с5 %
    21:00Ясно и безоблачно+23°C49 %715 мм2.8 м/с5 %
  • 18июля
    Четверг
    +18°
    +31°
    Ясно и безоблачно
    ВремяПогодаТемператураВлажностьДавлениеВетер, м/сВероятность осадков
    00:00Ясно и безоблачно+20°C62 %715 мм2.5 м/с5 %
    03:00Ясно и безоблачно+19°C70 %714 мм3.5 м/с5 %
    06:00Ясно и безоблачно+18°C78 %714 мм3.6 м/с5 %
    09:00Ясно и безоблачно+21°C59 %716 мм3.1 м/с5 %
    12:00Ясно и безоблачно+29°C35 %716 мм3.4 м/с5 %
    15:00Ясно и безоблачно+31°C29 %714 мм1.5 м/с5 %
    18:00Ясно и безоблачно+28°C40 %714 мм3.5 м/с5 %
    21:00Ясно и безоблачно+25°C47 %715 мм3.6 м/с5 %
  • 19июля
    Пятница
    +18°
    +32°
    Ясно и безоблачно
    ВремяПогодаТемператураВлажностьДавлениеВетер, м/сВероятность осадков
    00:00Ясно и безоблачно+22°C51 %715 мм3.7 м/с5 %
    03:00Ясно и безоблачно+20°C53 %714 мм3.9 м/с5 %
    06:00Ясно и безоблачно+19°C61 %715 мм3.7 м/с5 %
    09:00Ясно и безоблачно+22°C47 %717 мм3.7 м/с5 %
    12:00Ясно и безоблачно+30°C29 %718 мм3.1 м/с5 %
    15:00Ясно и безоблачно+31°C24 %716 мм1.7 м/с5 %
    18:00Ясно и безоблачно+28°C35 %716 мм3.4 м/с5 %
    21:00Ясно и безоблачно+25°C48 %716 мм3.4 м/с5 %
Мы используем cookies
Соглашаюсь